Pagina principale
METAR-TAF:

METAR-TAF

Aeroporti :

Apalachicola, Florida, Stati Uniti

latitudine: 29-43-37N, longitudine: 085-01-29W, altezza: 6 m

Osservazione

Il bollettino è stato emesso 25 minuti fa, alle 00:53 UTC
Vento 4 kt da est/sud-est
Temperature 21°C
Umidità 88%
Pressione 1018 hPa
Visibilità: 12.9 km
Poco nuvoloso ad un'altezza di 400 ft
Nuvoloso ad un'altezza di 1700 ft
Cielo coperto ad un'altezza di 2200 ft

METAR: KAAF 110053Z AUTO 12004KT 8SM FEW004 BKN017 OVC022 21/19 A3006 RMK AO2 SLP180 T02060194

Ora: 20:18 (01:18 UTC)


TAF: mancante

Osservazioni e previsioni meteorologiche di più di 4000 aeroporti (messaggi METAR e TAF).

Le stazioni disponibili sono rappresentate dai dischi gialli e rossi sulla carta.

Puntare il mouse per vedere il nome della stazione.

Clicca sopra per visualizzare le osservazioni e previsioni meteorologiche.

Per cambiare la mappa : fare clic sui pulsanti verdi con una croce nera per ingrandire, il pulsante verde con un trattino per diminuire, o sulla freccia verde per le mappe adiacenti.


METAR-TAF: